createdAt,value
2018-07-16T00:00:28.810Z,7.00
2018-07-16T00:02:57.872Z,7.20
2018-07-16T00:05:26.955Z,7.40
2018-07-16T00:07:55.993Z,7.67
2018-07-16T00:10:25.046Z,7.60
2018-07-16T00:12:54.222Z,7.50
2018-07-16T00:15:23.254Z,6.50
2018-07-16T00:17:52.314Z,7.43
2018-07-16T00:20:21.357Z,7.30
2018-07-16T00:22:50.441Z,7.20
2018-07-16T00:25:19.469Z,6.87
2018-07-16T00:27:48.546Z,9.20
2018-07-16T00:30:17.625Z,6.53
2018-07-16T00:32:46.703Z,6.77
2018-07-16T00:35:15.777Z,6.80
2018-07-16T00:37:44.819Z,6.83
2018-07-16T00:40:14.102Z,6.57
2018-07-16T00:42:43.177Z,6.63
2018-07-16T00:45:12.608Z,6.80
2018-07-16T00:47:41.878Z,6.47
2018-07-16T00:50:10.952Z,6.97
2018-07-16T00:52:40.076Z,6.67
2018-07-16T00:55:09.091Z,6.30
2018-07-16T00:57:38.168Z,6.27
2018-07-16T01:00:07.595Z,6.47
2018-07-16T01:02:36.721Z,6.70
2018-07-16T01:05:05.981Z,7.40
2018-07-16T01:07:34.977Z,6.47
2018-07-16T01:10:04.074Z,6.40
2018-07-16T01:12:33.580Z,6.40
2018-07-16T01:15:02.634Z,6.40
2018-07-16T01:17:31.820Z,6.57
2018-07-16T01:20:00.953Z,6.10
2018-07-16T01:22:30.005Z,5.83
2018-07-16T01:24:59.137Z,6.00
2018-07-16T01:27:28.150Z,6.10
2018-07-16T01:29:57.247Z,6.37
2018-07-16T01:32:26.869Z,6.20
2018-07-16T01:34:55.934Z,6.37
2018-07-16T01:37:25.031Z,5.57
2018-07-16T01:39:54.106Z,6.20
2018-07-16T01:42:23.180Z,5.83
2018-07-16T01:44:52.228Z,5.93
2018-07-16T01:47:21.283Z,6.10
2018-07-16T01:49:50.383Z,5.90
2018-07-16T01:52:19.457Z,6.10
2018-07-16T01:54:48.542Z,6.13
2018-07-16T01:57:17.587Z,5.93
2018-07-16T01:59:46.689Z,6.27
2018-07-16T02:02:15.770Z,6.30
2018-07-16T02:04:44.808Z,6.27
2018-07-16T02:07:13.860Z,5.80
2018-07-16T02:09:42.969Z,6.17
2018-07-16T02:12:12.282Z,6.10
2018-07-16T02:14:41.306Z,6.07
2018-07-16T02:17:10.733Z,6.17
2018-07-16T02:19:39.775Z,6.07
2018-07-16T02:22:09.081Z,5.23
2018-07-16T02:24:38.110Z,5.67
2018-07-16T02:27:07.267Z,6.00
2018-07-16T02:29:36.314Z,5.93
2018-07-16T02:32:05.466Z,6.13
2018-07-16T02:34:34.499Z,6.07
2018-07-16T02:37:03.583Z,6.43
2018-07-16T02:39:32.751Z,6.27
2018-07-16T02:42:01.818Z,6.13
2018-07-16T02:44:30.860Z,6.00
2018-07-16T02:47:00.079Z,6.20
2018-07-16T02:49:29.146Z,6.00
2018-07-16T02:51:58.235Z,6.20
2018-07-16T02:54:27.289Z,6.63
2018-07-16T02:56:56.730Z,6.10
2018-07-16T02:59:25.803Z,5.97
2018-07-16T03:01:54.835Z,6.03
2018-07-16T03:04:23.905Z,6.40
2018-07-16T03:06:52.978Z,6.10
2018-07-16T03:09:22.101Z,6.27
2018-07-16T03:11:51.149Z,6.63
2018-07-16T03:14:20.258Z,6.50
2018-07-16T03:16:49.290Z,6.67
2018-07-16T03:19:18.391Z,6.60
2018-07-16T03:21:47.439Z,6.90
2018-07-16T03:24:16.489Z,6.70
2018-07-16T03:26:45.533Z,5.90
2018-07-16T03:29:14.727Z,6.57
2018-07-16T03:31:43.758Z,6.47
2018-07-16T03:34:12.820Z,6.60
2018-07-16T03:36:41.896Z,6.90
2018-07-16T03:39:11.252Z,7.33
2018-07-16T03:41:40.500Z,6.40
2018-07-16T03:44:09.561Z,6.53
2018-07-16T03:46:38.637Z,7.03
2018-07-16T03:49:07.941Z,6.90
2018-07-16T03:51:37.081Z,6.00
2018-07-16T03:54:06.351Z,6.23
2018-07-16T03:56:35.610Z,7.03
2018-07-16T03:59:05.281Z,6.87
2018-07-16T04:01:34.413Z,7.30
2018-07-16T04:04:04.469Z,6.80
2018-07-16T04:06:33.545Z,7.00
2018-07-16T04:09:04.093Z,7.10
2018-07-16T04:11:33.662Z,6.73
2018-07-16T04:14:02.700Z,6.63
2018-07-16T04:16:31.770Z,6.90
2018-07-16T04:19:00.846Z,7.47
2018-07-16T04:21:29.911Z,6.70
2018-07-16T04:23:59.026Z,6.90
2018-07-16T04:26:28.394Z,6.90
2018-07-16T04:28:57.448Z,7.37
2018-07-16T04:31:26.495Z,7.33
2018-07-16T04:33:55.548Z,6.90
2018-07-16T04:36:24.647Z,6.83
2018-07-16T04:38:53.781Z,6.93
2018-07-16T04:41:22.817Z,7.27
2018-07-16T04:43:51.905Z,7.20
2018-07-16T04:46:21.305Z,7.60
2018-07-16T04:48:50.337Z,7.10
2018-07-16T04:51:19.387Z,7.70
2018-07-16T04:53:48.461Z,6.83
2018-07-16T04:56:17.550Z,7.20
2018-07-16T04:58:46.624Z,7.10
2018-07-16T05:01:15.741Z,7.70
2018-07-16T05:03:44.822Z,8.07
2018-07-16T05:06:13.857Z,7.90
2018-07-16T05:08:42.925Z,8.47
2018-07-16T05:11:11.977Z,8.87
2018-07-16T05:13:41.138Z,8.97
2018-07-16T05:16:10.202Z,9.60
2018-07-16T05:18:39.338Z,9.17
2018-07-16T05:21:08.444Z,8.97
2018-07-16T05:23:37.478Z,10.40
2018-07-16T05:26:06.533Z,9.63
2018-07-16T05:28:35.631Z,9.77
2018-07-16T05:31:04.835Z,9.10
2018-07-16T05:33:33.962Z,8.97
2018-07-16T05:36:05.963Z,9.40
2018-07-16T05:38:35.097Z,9.60
2018-07-16T05:41:04.472Z,10.07
2018-07-16T05:43:33.532Z,9.47
2018-07-16T05:46:02.563Z,11.27
2018-07-16T05:48:31.651Z,9.70
2018-07-16T05:51:02.495Z,9.73
2018-07-16T05:53:31.610Z,9.20
2018-07-16T05:56:00.749Z,9.37
2018-07-16T05:58:29.937Z,10.10
2018-07-16T06:01:00.057Z,10.20
2018-07-16T06:03:29.174Z,9.60
2018-07-16T06:05:58.281Z,10.70
2018-07-16T06:08:27.969Z,9.87
2018-07-16T06:10:57.278Z,10.30
2018-07-16T06:13:26.352Z,9.80
2018-07-16T06:15:55.565Z,10.53
2018-07-16T06:18:24.586Z,10.10
2018-07-16T06:20:53.929Z,9.70
2018-07-16T06:23:23.162Z,9.87
2018-07-16T06:25:52.288Z,10.50
2018-07-16T06:28:21.543Z,10.43
2018-07-16T06:30:50.608Z,9.77
2018-07-16T06:33:20.037Z,8.57
2018-07-16T06:35:49.170Z,9.73
2018-07-16T06:38:18.906Z,9.73
2018-07-16T06:40:48.303Z,9.63
2018-07-16T06:43:17.161Z,9.80
2018-07-16T06:45:46.271Z,8.90
2018-07-16T06:48:15.527Z,9.03
2018-07-16T06:50:44.571Z,9.73
2018-07-16T06:53:13.706Z,9.03
2018-07-16T06:55:42.789Z,10.50
2018-07-16T06:58:12.219Z,10.77
2018-07-16T07:00:41.342Z,8.40
2018-07-16T07:03:10.683Z,8.53
2018-07-16T07:05:40.041Z,9.60
2018-07-16T07:08:10.138Z,8.30
2018-07-16T07:10:39.239Z,8.70
2018-07-16T07:13:08.408Z,9.10
2018-07-16T07:15:37.779Z,8.80
2018-07-16T07:18:07.109Z,8.93
2018-07-16T07:20:36.220Z,8.70
2018-07-16T07:23:05.682Z,8.67
2018-07-16T07:25:35.905Z,8.40
2018-07-16T07:28:05.104Z,9.00
2018-07-16T07:30:34.223Z,7.97
2018-07-16T07:33:03.321Z,7.67
2018-07-16T07:35:32.711Z,7.90
2018-07-16T07:38:01.754Z,7.20
2018-07-16T07:40:30.870Z,10.40
2018-07-16T07:43:00.009Z,8.30
2018-07-16T07:45:29.087Z,7.60
2018-07-16T07:47:58.175Z,7.50
2018-07-16T07:50:27.355Z,7.40
2018-07-16T07:52:56.453Z,7.30
2018-07-16T07:55:26.807Z,6.93
2018-07-16T07:57:55.978Z,6.33
2018-07-16T08:00:25.147Z,6.77
2018-07-16T08:02:54.285Z,7.10
2018-07-16T08:05:34.890Z,6.83
2018-07-16T08:08:07.469Z,6.37
2018-07-16T08:10:37.623Z,6.00
2018-07-16T08:13:07.568Z,6.20
2018-07-16T08:15:40.788Z,6.77
2018-07-16T08:18:10.277Z,6.40
2018-07-16T08:20:39.529Z,5.20
2018-07-16T08:23:08.947Z,5.30
2018-07-16T08:25:38.096Z,5.10
2018-07-16T08:28:07.192Z,4.87
2018-07-16T08:30:36.575Z,5.23
2018-07-16T08:33:05.678Z,4.63
2018-07-16T08:35:34.760Z,4.73
2018-07-16T08:38:04.036Z,4.30
2018-07-16T08:40:33.143Z,5.00
2018-07-16T08:43:02.211Z,4.53
2018-07-16T08:45:31.292Z,3.67
2018-07-16T08:48:00.494Z,4.30
2018-07-16T08:50:40.784Z,3.97
2018-07-16T08:53:28.320Z,3.93
2018-07-16T08:55:58.425Z,3.93
2018-07-16T08:58:27.773Z,2.70
2018-07-16T09:00:56.959Z,3.53
2018-07-16T09:03:26.115Z,4.37
2018-07-16T09:06:00.673Z,3.77
2018-07-16T09:08:30.255Z,3.37
2018-07-16T09:10:59.382Z,3.20
2018-07-16T09:13:28.745Z,3.40
2018-07-16T09:15:58.277Z,3.00
2018-07-16T09:18:27.410Z,2.83
2018-07-16T09:20:56.481Z,3.30
2018-07-16T09:23:25.655Z,3.17
2018-07-16T09:25:54.738Z,3.87
2018-07-16T09:28:23.807Z,3.07
2018-07-16T09:30:52.880Z,3.03
2018-07-16T09:33:21.957Z,3.20
2018-07-16T09:35:51.087Z,3.30
2018-07-16T09:38:21.102Z,4.77
2018-07-16T09:40:50.237Z,3.40
2018-07-16T09:43:19.344Z,3.07
2018-07-16T09:45:48.493Z,2.87
2018-07-16T09:48:17.730Z,3.40
2018-07-16T09:50:46.753Z,2.90
2018-07-16T09:53:15.787Z,2.53
2018-07-16T09:55:45.674Z,3.47
2018-07-16T09:58:14.769Z,2.40
2018-07-16T10:00:49.837Z,2.50
2018-07-16T10:03:19.028Z,3.00
2018-07-16T10:05:48.445Z,2.67
2018-07-16T10:08:17.547Z,2.63
2018-07-16T10:10:46.886Z,2.60
2018-07-16T10:13:16.099Z,3.50
2018-07-16T10:15:45.873Z,2.67
2018-07-16T10:18:15.021Z,2.70
2018-07-16T10:20:44.181Z,3.30
2018-07-16T10:23:13.262Z,2.90
2018-07-16T10:25:42.347Z,2.90
2018-07-16T10:28:11.459Z,2.90
2018-07-16T10:30:41.155Z,2.73
2018-07-16T10:33:10.357Z,2.73
2018-07-16T10:35:39.458Z,3.00
2018-07-16T10:38:08.653Z,3.23
2018-07-16T10:40:37.721Z,2.87
2018-07-16T10:43:06.832Z,7.40
2018-07-16T10:45:35.878Z,6.00
2018-07-16T10:48:05.219Z,3.50
2018-07-16T10:50:34.330Z,3.20
2018-07-16T10:53:03.627Z,3.70
2018-07-16T10:55:32.775Z,3.60
2018-07-16T10:58:01.858Z,3.60
2018-07-16T11:00:31.252Z,3.10
2018-07-16T11:03:00.468Z,2.77
2018-07-16T11:05:29.588Z,3.40
2018-07-16T11:07:58.618Z,3.10
2018-07-16T11:10:27.701Z,2.97
2018-07-16T11:12:57.594Z,2.93
2018-07-16T11:15:26.702Z,2.60
2018-07-16T11:17:56.293Z,2.87
2018-07-16T11:20:25.678Z,2.90
2018-07-16T11:22:54.753Z,2.90
2018-07-16T11:25:23.901Z,2.70
2018-07-16T11:27:53.042Z,3.20
2018-07-16T11:30:22.241Z,2.83
2018-07-16T11:32:51.246Z,3.20
2018-07-16T11:35:20.375Z,3.03
2018-07-16T11:37:49.395Z,3.20
2018-07-16T11:40:18.577Z,3.03
2018-07-16T11:42:47.699Z,2.80
2018-07-16T11:45:16.780Z,2.73
2018-07-16T11:47:45.877Z,2.90
2018-07-16T11:50:14.979Z,2.80
2018-07-16T11:52:44.122Z,2.80
2018-07-16T11:55:13.211Z,3.73
2018-07-16T11:57:42.212Z,2.93
2018-07-16T12:00:11.286Z,3.27
2018-07-16T12:02:40.402Z,2.97
2018-07-16T12:05:09.606Z,3.27
2018-07-16T12:07:38.638Z,2.90
2018-07-16T12:10:07.769Z,3.10
2018-07-16T12:12:36.983Z,2.83
2018-07-16T12:15:06.734Z,3.00
2018-07-16T12:17:36.274Z,2.87
2018-07-16T12:20:06.073Z,8.03
2018-07-16T12:22:35.145Z,3.80
2018-07-16T12:25:04.377Z,8.03
2018-07-16T12:27:33.520Z,3.23
2018-07-16T12:30:02.662Z,3.10
2018-07-16T12:32:31.861Z,3.93
2018-07-16T12:35:00.971Z,4.10
2018-07-16T12:37:30.057Z,3.40
2018-07-16T12:39:59.142Z,3.10
2018-07-16T12:42:28.347Z,2.90
2018-07-16T12:44:57.431Z,2.90
2018-07-16T12:47:26.556Z,3.00
2018-07-16T12:49:55.747Z,2.80
2018-07-16T12:52:25.433Z,3.40
2018-07-16T12:54:54.639Z,3.20
2018-07-16T12:57:23.834Z,3.37
2018-07-16T12:59:52.954Z,3.20
2018-07-16T13:02:22.299Z,3.20
2018-07-16T13:04:51.436Z,4.17
2018-07-16T13:07:20.559Z,3.17
2018-07-16T13:09:49.630Z,3.20
2018-07-16T13:12:18.750Z,3.30
2018-07-16T13:14:48.487Z,3.00
2018-07-16T13:17:17.810Z,3.20
2018-07-16T13:19:46.876Z,2.80
2018-07-16T13:22:16.050Z,3.17
2018-07-16T13:24:45.138Z,3.43
2018-07-16T13:27:14.212Z,3.27
2018-07-16T13:29:43.411Z,3.27
2018-07-16T13:32:12.909Z,3.50
2018-07-16T13:34:42.018Z,3.30
2018-07-16T13:37:11.124Z,4.27
2018-07-16T13:39:40.227Z,3.17
2018-07-16T13:42:09.478Z,2.83
2018-07-16T13:44:38.675Z,3.27
2018-07-16T13:47:07.756Z,3.20
2018-07-16T13:49:36.797Z,3.03
2018-07-16T13:52:06.815Z,3.43
2018-07-16T13:54:35.895Z,3.47
2018-07-16T13:57:05.043Z,3.20
2018-07-16T13:59:34.742Z,3.13
2018-07-16T14:02:03.837Z,3.97
2018-07-16T14:04:33.183Z,4.20
2018-07-16T14:07:02.278Z,4.60
2018-07-16T14:09:31.430Z,3.70
2018-07-16T14:12:00.503Z,3.60
2018-07-16T14:14:30.410Z,3.30
2018-07-16T14:16:59.523Z,3.73
2018-07-16T14:19:29.400Z,2.90
2018-07-16T14:21:58.818Z,3.13
2018-07-16T14:24:27.838Z,3.87
2018-07-16T14:26:56.999Z,3.83
2018-07-16T14:29:26.179Z,4.80
2018-07-16T14:31:55.284Z,4.13
2018-07-16T14:34:25.183Z,4.13
2018-07-16T14:36:54.292Z,3.67
2018-07-16T14:39:23.429Z,3.23
2018-07-16T14:41:52.724Z,3.43
2018-07-16T14:44:22.256Z,3.50
2018-07-16T14:46:52.145Z,3.60
2018-07-16T14:49:21.205Z,3.30
2018-07-16T14:51:50.483Z,3.70
2018-07-16T14:54:19.616Z,3.37
2018-07-16T14:56:48.781Z,2.93
2018-07-16T14:59:17.925Z,3.00
2018-07-16T15:01:47.115Z,3.70
2018-07-16T15:04:17.166Z,2.83
2018-07-16T15:06:46.323Z,2.30
2018-07-16T15:09:15.542Z,2.20
2018-07-16T15:11:45.105Z,3.63
2018-07-16T15:14:16.461Z,2.60
2018-07-16T15:16:45.578Z,2.50
2018-07-16T15:19:17.693Z,2.33
2018-07-16T15:21:48.683Z,2.13
2018-07-16T15:24:17.756Z,2.63
2018-07-16T15:26:46.894Z,2.37
2018-07-16T15:29:16.052Z,2.10
2018-07-16T15:31:45.297Z,2.27
2018-07-16T15:34:14.391Z,1.90
2018-07-16T15:36:43.882Z,2.00
2018-07-16T15:39:12.972Z,2.20
2018-07-16T15:41:43.807Z,2.30
2018-07-16T15:44:13.069Z,3.80
2018-07-16T15:46:42.153Z,2.50
2018-07-16T15:49:11.442Z,2.77
2018-07-16T15:51:41.625Z,2.33
2018-07-16T15:54:10.764Z,3.30
2018-07-16T15:56:51.436Z,2.77
2018-07-16T15:59:20.789Z,2.30
2018-07-16T16:01:51.898Z,2.47
2018-07-16T16:04:21.049Z,2.63
2018-07-16T16:06:50.807Z,2.20
2018-07-16T16:09:19.985Z,2.27
2018-07-16T16:11:49.301Z,2.50
2018-07-16T16:14:18.949Z,2.47
2018-07-16T16:16:48.198Z,2.33
2018-07-16T16:19:17.314Z,2.27
2018-07-16T16:21:47.173Z,3.00
2018-07-16T16:24:16.445Z,3.30
2018-07-16T16:26:45.611Z,4.03
2018-07-16T16:29:14.763Z,2.67
2018-07-16T16:31:43.817Z,2.77
2018-07-16T16:34:12.939Z,2.60
2018-07-16T16:36:42.085Z,2.40
2018-07-16T16:39:16.748Z,2.93
2018-07-16T16:41:51.460Z,2.70
2018-07-16T16:44:29.969Z,2.70
2018-07-16T16:46:59.793Z,2.70
2018-07-16T16:49:28.941Z,2.30
2018-07-16T16:51:59.324Z,2.40
2018-07-16T16:54:28.609Z,2.80
2018-07-16T16:56:57.810Z,2.37
2018-07-16T16:59:27.038Z,2.40
2018-07-16T17:01:56.248Z,2.60
2018-07-16T17:04:25.405Z,2.90
2018-07-16T17:06:54.413Z,2.47
2018-07-16T17:09:23.538Z,3.10
2018-07-16T17:11:52.957Z,2.50
2018-07-16T17:14:22.197Z,2.80
2018-07-16T17:16:51.334Z,2.70
2018-07-16T17:19:21.132Z,2.87
2018-07-16T17:21:50.330Z,3.27
2018-07-16T17:24:19.554Z,3.00
2018-07-16T17:26:48.647Z,3.37
2018-07-16T17:29:17.799Z,2.97
2018-07-16T17:31:47.073Z,2.80
2018-07-16T17:34:16.186Z,2.77
2018-07-16T17:36:46.269Z,3.33
2018-07-16T17:39:16.078Z,3.10
2018-07-16T17:41:45.111Z,3.43
2018-07-16T17:44:14.319Z,5.13
2018-07-16T17:46:43.434Z,2.80
2018-07-16T17:49:12.490Z,3.20
2018-07-16T17:51:41.570Z,3.53
2018-07-16T17:54:10.913Z,3.40
2018-07-16T17:56:40.019Z,3.23
2018-07-16T17:59:09.164Z,4.03
2018-07-16T18:01:38.333Z,3.30
2018-07-16T18:04:11.438Z,3.50
2018-07-16T18:06:41.738Z,3.40
2018-07-16T18:09:10.829Z,3.70
2018-07-16T18:11:39.921Z,3.07
2018-07-16T18:14:09.044Z,3.40
2018-07-16T18:16:38.173Z,3.47
2018-07-16T18:19:07.217Z,3.53
2018-07-16T18:21:36.330Z,3.50
2018-07-16T18:24:05.394Z,3.37
2018-07-16T18:26:34.561Z,3.40
2018-07-16T18:29:03.644Z,3.33
2018-07-16T18:31:32.883Z,3.20
2018-07-16T18:34:01.998Z,3.63
2018-07-16T18:36:31.131Z,3.43
2018-07-16T18:39:04.562Z,4.23
2018-07-16T18:41:40.106Z,3.30
2018-07-16T18:44:09.603Z,3.67
2018-07-16T18:46:57.651Z,3.40
2018-07-16T18:49:29.186Z,3.30
2018-07-16T18:51:59.336Z,3.83
2018-07-16T18:54:28.417Z,4.47
2018-07-16T18:56:57.529Z,4.17
2018-07-16T18:59:27.358Z,4.30
2018-07-16T19:01:56.398Z,4.10
2018-07-16T19:04:25.556Z,3.80
2018-07-16T19:06:55.887Z,3.50
2018-07-16T19:09:25.553Z,4.33
2018-07-16T19:11:55.089Z,5.13
2018-07-16T19:14:24.416Z,4.70
2018-07-16T19:16:53.570Z,4.33
2018-07-16T19:19:23.695Z,4.07
2018-07-16T19:21:53.596Z,4.27
2018-07-16T19:24:23.006Z,4.27
2018-07-16T19:26:52.040Z,5.27
2018-07-16T19:29:21.257Z,4.60
2018-07-16T19:31:50.959Z,4.37
2018-07-16T19:34:20.030Z,4.03
2018-07-16T19:36:49.242Z,3.90
2018-07-16T19:39:18.410Z,3.70
2018-07-16T19:41:47.551Z,3.90
2018-07-16T19:44:16.653Z,4.50
2018-07-16T19:46:45.691Z,4.60
2018-07-16T19:49:14.858Z,4.60
2018-07-16T19:51:44.062Z,30.27
2018-07-16T19:54:13.460Z,5.37
2018-07-16T19:56:42.525Z,5.00
2018-07-16T19:59:11.632Z,4.50
2018-07-16T20:01:40.829Z,4.53
2018-07-16T20:04:09.983Z,4.30
2018-07-16T20:06:39.041Z,4.17
2018-07-16T20:09:08.137Z,4.23
2018-07-16T20:11:37.291Z,3.83
2018-07-16T20:14:06.859Z,4.90
2018-07-16T20:16:42.463Z,4.30
2018-07-16T20:19:12.255Z,5.53
2018-07-16T20:21:41.365Z,4.37
2018-07-16T20:24:10.430Z,4.30
2018-07-16T20:26:39.510Z,4.80
2018-07-16T20:29:08.550Z,4.40
2018-07-16T20:31:37.740Z,4.37
2018-07-16T20:34:06.961Z,4.90
2018-07-16T20:36:36.474Z,4.55
2018-07-16T20:39:09.285Z,4.73
2018-07-16T20:41:38.548Z,4.90
2018-07-16T20:44:08.308Z,4.90
2018-07-16T20:46:38.054Z,4.47
2018-07-16T20:49:07.353Z,5.00
2018-07-16T20:51:38.356Z,5.00
2018-07-16T20:54:09.692Z,4.80
2018-07-16T20:56:40.585Z,4.77
2018-07-16T20:59:09.762Z,4.60
2018-07-16T21:01:38.907Z,4.70
2018-07-16T21:04:07.951Z,5.23
2018-07-16T21:06:37.062Z,5.07
2018-07-16T21:09:07.807Z,4.97
2018-07-16T21:11:37.427Z,5.27
2018-07-16T21:14:06.731Z,5.03
2018-07-16T21:16:35.827Z,5.10
2018-07-16T21:19:04.965Z,5.40
2018-07-16T21:21:34.045Z,5.70
2018-07-16T21:24:03.388Z,5.00
2018-07-16T21:26:32.486Z,5.30
2018-07-16T21:29:01.643Z,4.90
2018-07-16T21:31:31.043Z,5.03
2018-07-16T21:34:00.117Z,4.60
2018-07-16T21:36:29.175Z,5.13
2018-07-16T21:38:58.356Z,4.50
2018-07-16T21:41:27.424Z,4.97
2018-07-16T21:43:56.550Z,5.07
2018-07-16T21:46:25.594Z,5.17
2018-07-16T21:48:54.642Z,4.77
2018-07-16T21:51:23.794Z,5.10
2018-07-16T21:53:52.867Z,5.17
2018-07-16T21:56:21.938Z,4.73
2018-07-16T21:58:51.105Z,4.47
2018-07-16T22:01:20.207Z,4.80
2018-07-16T22:03:49.417Z,5.10
2018-07-16T22:06:18.429Z,5.47
2018-07-16T22:08:47.510Z,4.90
2018-07-16T22:11:16.740Z,5.00
2018-07-16T22:13:45.766Z,4.97
2018-07-16T22:16:14.906Z,5.13
2018-07-16T22:18:44.011Z,5.13
2018-07-16T22:21:13.242Z,5.27
2018-07-16T22:23:42.302Z,5.20
2018-07-16T22:26:11.347Z,5.43
2018-07-16T22:28:40.445Z,5.20
2018-07-16T22:31:09.584Z,5.37
2018-07-16T22:33:38.570Z,6.03
2018-07-16T22:36:07.631Z,5.37
2018-07-16T22:38:36.937Z,5.30
2018-07-16T22:41:06.077Z,4.97
2018-07-16T22:43:35.112Z,5.57
2018-07-16T22:46:04.163Z,5.33
2018-07-16T22:48:33.315Z,5.10
2018-07-16T22:51:02.467Z,5.20
2018-07-16T22:53:31.573Z,5.33
2018-07-16T22:56:00.663Z,5.10
2018-07-16T22:58:29.749Z,5.77
2018-07-16T23:00:58.828Z,5.40
2018-07-16T23:03:27.897Z,5.50
2018-07-16T23:05:57.030Z,5.00
2018-07-16T23:08:26.629Z,5.23
2018-07-16T23:10:55.768Z,5.20
2018-07-16T23:13:25.050Z,5.50
2018-07-16T23:15:54.104Z,5.33
2018-07-16T23:18:23.217Z,5.50
2018-07-16T23:20:52.307Z,5.20
2018-07-16T23:23:21.419Z,5.10
2018-07-16T23:25:50.462Z,5.63
2018-07-16T23:28:19.557Z,5.20
2018-07-16T23:30:48.776Z,5.40
2018-07-16T23:33:17.832Z,5.40
2018-07-16T23:35:46.893Z,5.40
2018-07-16T23:38:16.013Z,5.63
2018-07-16T23:40:45.086Z,5.40
2018-07-16T23:43:14.254Z,5.17
2018-07-16T23:45:43.739Z,5.30
2018-07-16T23:48:12.838Z,5.43
2018-07-16T23:50:41.934Z,5.13
2018-07-16T23:53:10.982Z,5.47
2018-07-16T23:55:40.074Z,5.20
2018-07-16T23:58:09.205Z,5.20
